Vorselaar, Belgium
Current Conditions -  °F | °C
As of 3:50 AM on Wednesday 22 Oct 2014 (Local Time) from EBAW Reporting Station
Rain Showers Rain Showers  
Wind Chill: 41°   Ceiling: 1000
Heat Index: 46°   Visibility: 3mi
Dew Point: 41°   Wind: 12mph
Humidity: 81%   Direction: 310°NW
Pressure: 30"   Gusts: NA
Location:  51.2°N, 4.77°E
Report Text: EBAW 220150Z AUTO 31010KT 280V340 5000 SHRA BKN010/// OVC015/// 08/05 Q1016
Loading
Personal Weather Stations






























Interactive Weather Map
Tropical Storm Tracking
New forecast layout! Learn more

10-Day Weather Forecast

Advertisements
Track Severe Weather on mobile